• Join FlightAware (Why Join?)
  • Login
  • US Flag 
11:54AM EDT


 

Airport Tracker/Info


-or-


 

Live Flight TrackerFlight Track Log ✈ AWE1940 ✈ 26-Jun-2013 ✈ KIAH - KCLT

Flight Track Log - Related Links

Times and Time Zones

All times are in EDT time to prevent confusion due to time zone crossing. See the AWE1940 flight status page for this flight to view local times or setup timezone preferences in your user account.

Time Position Orientation Groundspeed Altitude Reporting Facility
EDT Latitude Longitude Course Direction KTS MPH feet Rate Location/Type
06:46PM 29.9572 -95.3392 90° East 203 234 800  Level Houston Center
06:47PM 29.9139 -95.2794 130° Southeast 216 249 3,300 1,920 Climbing Houston Center
06:48PM 29.8831 -95.2367 130° Southeast 234 269 4,600 2,400 Climbing Houston Center
06:49PM 29.9834 -94.8272 90° East  Level FlightAware Approximate
06:49PM 29.8422 -95.1622 122° Southeast 272 313 7,500  Level Houston Center
06:50PM 29.9834 -94.7007 90° East  Level FlightAware Approximate
06:50PM 29.8625 -95.0750 75° East 281 323 10,200  Level Houston Center
06:51PM 29.9833 -94.5742 90° East  Level FlightAware Approximate
06:51PM 29.8869 -94.9767 74° East 319 367 11,400  Level Houston Center
06:52PM 29.9161 -94.8628 74° East 360 414 13,400 1,980 Climbing Houston Center
06:53PM 29.9458 -94.7444 74° East 378 435 15,600 2,340 Climbing Houston Center
06:54PM 29.9828 -94.5983 74° East 391 450 18,300 2,040 Climbing Houston Center
06:55PM 29.9931 -94.4800 84° East 397 457 19,900 1,560 Climbing Houston Center
06:56PM 29.9947 -94.3444 89° East 416 479 21,600 1,740 Climbing Houston Center
06:57PM 30.0086 -94.2111 83° East 420 483 23,500 1,800 Climbing Houston Center
06:58PM 30.0297 -94.0486 81° East 425 489 25,400 1,560 Climbing Houston Center
06:59PM 30.0464 -93.9106 82° East 433 498 26,800 1,320 Climbing Houston Center
07:00PM 30.0628 -93.7717 82° East 439 505 28,200 1,500 Climbing Houston Center
07:01PM 30.0792 -93.6328 82° East 440 506 30,000 1,500 Climbing Houston Center
07:02PM 30.0992 -93.4689 82° East 438 504 31,300 1,080 Climbing Houston Center
07:03PM 30.1142 -93.3306 83° East 441 507 32,300 1,020 Climbing Houston Center
07:04PM 30.1306 -93.1928 82° East 439 505 33,500 960 Climbing Houston Center
07:05PM 30.1642 -93.0619 73° East 435 501 34,300 720 Climbing Houston Center
07:06PM 30.2283 -92.9483 57° Northeast 427 491 35,000 300 Climbing Houston Center
07:07PM 30.3042 -92.8086 58° Northeast 430 495 35,000  Level Houston Center
07:08PM 30.3667 -92.6917 58° Northeast 431 496 35,000  Level Houston Center
07:09PM 30.4303 -92.5753 58° Northeast 430 495 35,000  Level Houston Center
07:10PM 30.4950 -92.4539 58° Northeast 428 493 35,000  Level Houston Center
07:11PM 30.5583 -92.3372 58° Northeast 431 496 35,000  Level Houston Center
07:13PM 30.6219 -92.2194 58° Northeast 432 497 35,000  Level Houston Center
07:14PM 30.6967 -92.0794 58° Northeast 428 493 35,000  Level Houston Center
07:15PM 30.7606 -91.9628 57° Northeast 430 495 35,000  Level Houston Center
07:16PM 30.8228 -91.8450 58° Northeast 429 494 35,000  Level Houston Center
07:17PM 30.8842 -91.7278 59° Northeast 428 493 35,000  Level Houston Center
07:18PM 30.9475 -91.6097 58° Northeast 431 496 35,000  Level Houston Center
07:19PM 31.0236 -91.4675 58° Northeast 432 497 35,000  Level Houston Center
07:20PM 31.0817 -91.3564 59° Northeast 430 495 35,000  Level Houston Center
07:21PM 31.1447 -91.2383 58° Northeast 429 494 35,000  Level Houston Center
07:22PM 31.2061 -91.1197 59° Northeast 428 493 35,000  Level Houston Center
07:23PM 31.2672 -91.0000 59° Northeast 427 491 35,000  Level Houston Center
07:24PM 31.3428 -90.8561 58° Northeast 431 496 35,000  Level Houston Center
07:25PM 31.4053 -90.7356 59° Northeast 433 498 35,000  Level Houston Center
07:26PM 31.4675 -90.6150 59° Northeast 431 496 35,000  Level Houston Center
07:27PM 31.5292 -90.4942 59° Northeast 432 497 35,000  Level Houston Center
07:28PM 31.5911 -90.3733 59° Northeast 432 497 35,000  Level Houston Center
07:29PM 31.6406 -90.2767 59° Northeast 432 497 35,000  Level Houston Center
07:30PM 31.7136 -90.1314 59° Northeast 431 496 35,000  Level Houston Center
07:31PM 31.7875 -89.9869 59° Northeast 430 495 35,000  Level Houston Center
07:32PM 31.8486 -89.8667 59° Northeast 428 493 35,000  Level Houston Center
07:33PM 31.9042 -89.7550 60° Northeast 430 495 35,000  Level Houston Center
07:34PM 31.9656 -89.6325 59° Northeast 432 497 35,000  Level Houston Center
07:35PM 32.0406 -89.4825 59° Northeast 424 488 35,000  Level Memphis Center
07:36PM 32.1022 -89.3617 59° Northeast 424 488 35,000  Level Memphis Center
07:37PM 32.1636 -89.2383 60° Northeast 424 488 35,000  Level Memphis Center
07:38PM 32.2231 -89.1147 60° Northeast 424 488 35,000  Level Memphis Center
07:39PM 32.2803 -89.0058 58° Northeast 429 494 35,000  Level Memphis Center
07:40PM 32.3394 -88.8794 61° Northeast 429 494 35,000  Level Memphis Center
07:41PM 32.4028 -88.7556 59° Northeast 429 494 35,000  Level Memphis Center
07:42PM 32.4617 -88.6314 61° Northeast 429 494 35,000  Level Memphis Center
07:43PM 32.5183 -88.5047 62° Northeast 424 488 35,000  Level Memphis Center
07:44PM 32.5767 -88.3778 61° Northeast 424 488 35,000  Level Memphis Center
07:46PM 32.6817 -88.1625 60° Northeast 451 519 35,000  Level Atlanta Center
07:47PM 32.7450 -88.0150 63° Northeast 446 513 35,000  Level Atlanta Center
07:48PM 32.8033 -87.8889 61° Northeast 440 506 35,000  Level Atlanta Center
07:49PM 32.8636 -87.7606 61° Northeast 434 499 35,000  Level Atlanta Center
07:50PM 32.9217 -87.6319 62° Northeast 434 499 35,000  Level Atlanta Center
07:51PM 32.9706 -87.5300 60° Northeast 434 499 35,000  Level Atlanta Center
07:52PM 33.0331 -87.3764 64° Northeast 424 488 35,000  Level Atlanta Center
07:53PM 33.0928 -87.2472 61° Northeast 429 494 35,000  Level Atlanta Center
07:54PM 33.1483 -87.1203 62° Northeast 429 494 35,000  Level Atlanta Center
07:55PM 33.2053 -87.0081 59° Northeast 429 494 35,000  Level Atlanta Center
07:56PM 33.2483 -86.8681 70° East 429 494 35,000  Level Atlanta Center
07:57PM 33.2681 -86.7294 80° East 433 498 35,000  Level Atlanta Center
07:58PM 33.2964 -86.5764 77° East 439 505 35,000  Level Atlanta Center
07:59PM 33.3114 -86.4475 82° East 439 505 35,000  Level Atlanta Center
08:00PM 33.3417 -86.2867 77° East 439 505 35,000  Level Atlanta Center
08:01PM 33.3650 -86.1456 79° East 444 511 35,000  Level Atlanta Center
08:02PM 33.3883 -86.0019 79° East 444 511 35,000  Level Atlanta Center
08:03PM 33.4136 -85.8581 78° East 444 511 35,000  Level Atlanta Center
08:04PM 33.4364 -85.7067 80° East 433 498 35,000  Level Atlanta Center
08:05PM 33.4592 -85.5653 79° East 433 498 35,000  Level Atlanta Center
08:06PM 33.4817 -85.4236 79° East 427 491 35,000  Level Atlanta Center
08:07PM 33.5019 -85.2819 80° East 427 491 35,000  Level Atlanta Center
08:08PM 33.5242 -85.1403 79° East 427 491 35,000  Level Atlanta Center
08:09PM 33.5464 -84.9983 79° East 427 491 35,000  Level Atlanta Center
08:10PM 33.5661 -84.8592 80° East 427 491 35,000  Level Atlanta Center
08:11PM 33.5878 -84.7147 80° East 427 491 35,000  Level Atlanta Center
08:12PM 33.6053 -84.5875 81° East 427 491 35,000  Level Atlanta Center
08:13PM 33.6286 -84.4356 80° East 427 491 35,000  Level Atlanta Center
08:14PM 33.6686 -84.3008 70° East 422 486 35,000  Level Atlanta Center
08:15PM 33.7044 -84.1611 73° East 427 491 35,000  Level Atlanta Center
08:16PM 33.7419 -84.0239 72° East 427 491 35,000  Level Atlanta Center
08:17PM 33.7794 -83.8889 71° East 421 484 35,000  Level Atlanta Center
08:18PM 33.8189 -83.7536 71° East 421 484 35,000 -360 Level Atlanta Center
08:19PM 33.8561 -83.6186 72° East 426 490 34,300 -840 Descending Atlanta Center
08:20PM 33.8931 -83.4783 72° East 431 496 33,400 -900 Descending Atlanta Center
08:21PM 33.9258 -83.3578 72° East 431 496 32,600 -900 Descending Atlanta Center
08:22PM 33.9669 -83.2172 71° East 431 496 31,600 -1,020 Descending Atlanta Center
08:23PM 34.0033 -83.0767 73° East 436 502 30,600 -960 Descending Atlanta Center
08:24PM 34.0439 -82.9306 71° East 447 514 29,700 -1,020 Descending Atlanta Center
08:25PM 34.0800 -82.7897 73° East 441 507 28,600 -1,080 Descending Atlanta Center
08:26PM 34.1183 -82.6511 71° East 441 507 27,600 -1,080 Descending Atlanta Center
08:27PM 34.1939 -82.5169 56° Northeast 435 501 26,500 -1,080 Descending Atlanta Center
08:28PM 34.2592 -82.3975 57° Northeast 430 495 25,500 -1,140 Descending Atlanta Center
08:29PM 34.3244 -82.2831 55° Northeast 425 489 24,300 -1,740 Descending Atlanta Center
08:30PM 34.3872 -82.1661 57° Northeast 419 482 22,100 -2,220 Descending Atlanta Center
08:31PM 34.4522 -82.0536 55° Northeast 414 476 19,900 -2,220 Descending Atlanta Center
08:32PM 34.5131 -81.9414 57° Northeast 409 471 17,700 -2,160 Descending Atlanta Center
08:33PM 34.5717 -81.8364 56° Northeast 396 456 15,600 -2,100 Descending Atlanta Center
08:34PM 34.6261 -81.7317 58° Northeast 384 442 13,600 -1,860 Descending Atlanta Center
08:35PM 34.6850 -81.6364 53° Northeast 356 410 11,900 -840 Descending Atlanta Center
08:36PM 34.7331 -81.5442 58° Northeast 341 392 12,000  Climbing Atlanta Center
08:37PM 34.7900 -81.4742 45° Northeast 302 348 12,000 -540 Level Atlanta Center
08:38PM 34.8408 -81.4067 47° Northeast 295 339 11,000 -1,380 Descending Atlanta Center
08:39PM 34.8753 -81.3625 46° Northeast 305 351 10,000 -1,020 Descending Atlanta Center
08:39PM 34.8997 -81.3289 48° Northeast 295 339 10,000  Level Atlanta Center
08:40PM 34.9322 -81.2872 46° Northeast 300 345 10,000  Level Atlanta Center
08:41PM 34.9950 -81.2117 45° Northeast 293 337 10,000 -540 Level Atlanta Center
08:41PM 35.0458 -81.1467 46° Northeast 293 337 9,000 -540 Descending Atlanta Center
08:42PM 35.1175 -81.0983 29° Northeast 287 330 9,000 -120 Level Atlanta Center
08:43PM 35.1442 -81.0797 30° Northeast 282 325 8,900 -840 Descending Atlanta Center
08:44PM 35.2061 -81.0419 26° Northeast 253 291 7,800 -960 Descending Atlanta Center
08:45PM 35.2569 -80.9917 39° Northeast 234 269 7,000 -1,080 Descending Atlanta Center
08:46PM 35.2831 -80.9575 47° Northeast 239 275 6,200 -660 Descending Atlanta Center
08:47PM 35.3336 -80.8947 45° Northeast 249 287 6,000 -660 Descending Atlanta Center
08:48PM 35.3822 -80.8367 44° Northeast 244 281 4,900 -1,020 Descending Atlanta Center
08:49PM 35.4181 -80.7717 56° Northeast 230 265 4,000 -480 Descending Atlanta Center
08:50PM 35.3719 -80.7581 166° South 187 215 4,000 -60 Level Atlanta Center
08:50PM 35.3331 -80.7853 210° Southwest 189 217 3,900 -120 Descending Atlanta Center